createdAt,value
2023-06-04T00:01:41.634Z,1.30
2023-06-04T00:04:09.446Z,1.60
2023-06-04T00:06:38.201Z,1.33
2023-06-04T00:11:35.085Z,3.10
2023-06-04T00:14:02.975Z,2.07
2023-06-04T00:16:30.891Z,1.85
2023-06-04T00:19:00.368Z,1.58
2023-06-04T00:21:28.276Z,1.57
2023-06-04T00:23:56.338Z,1.50
2023-06-04T00:26:24.262Z,1.48
2023-06-04T00:28:52.070Z,1.58
2023-06-04T00:31:19.890Z,1.80
2023-06-04T00:33:47.712Z,1.65
2023-06-04T00:36:17.007Z,1.20
2023-06-04T00:38:45.061Z,1.50
2023-06-04T00:41:12.996Z,1.50
2023-06-04T00:43:40.836Z,1.58
2023-06-04T00:46:09.379Z,1.60
2023-06-04T00:53:35.715Z,1.23
2023-06-04T00:56:06.953Z,1.40
2023-06-04T00:58:39.506Z,1.50
2023-06-04T01:01:13.011Z,1.40
2023-06-04T01:03:45.307Z,1.30
2023-06-04T01:06:22.198Z,1.50
2023-06-04T01:08:55.575Z,1.70
2023-06-04T01:11:33.536Z,1.40
2023-06-04T01:14:01.527Z,1.40
2023-06-04T01:16:32.384Z,1.67
2023-06-04T01:19:03.776Z,1.60
2023-06-04T01:21:36.594Z,1.50
2023-06-04T01:24:08.220Z,1.37
2023-06-04T01:26:36.427Z,1.40
2023-06-04T01:29:04.773Z,1.20
2023-06-04T01:31:34.196Z,1.20
2023-06-04T01:34:03.092Z,1.30
2023-06-04T01:39:00.879Z,1.15
2023-06-04T01:41:30.039Z,1.50
2023-06-04T01:43:58.310Z,1.10
2023-06-04T01:46:26.336Z,1.42
2023-06-04T01:48:54.162Z,1.50
2023-06-04T01:51:22.264Z,1.27
2023-06-04T01:53:50.031Z,1.30
2023-06-04T01:56:17.855Z,1.38
2023-06-04T01:58:47.056Z,1.42
2023-06-04T02:01:18.092Z,1.33
2023-06-04T02:03:46.429Z,1.20
2023-06-04T02:06:14.289Z,1.20
2023-06-04T02:08:43.423Z,1.35
2023-06-04T02:11:11.270Z,1.20
2023-06-04T02:13:39.064Z,1.27
2023-06-04T02:16:08.608Z,1.27
2023-06-04T02:18:36.414Z,1.30
2023-06-04T02:21:04.226Z,1.33
2023-06-04T02:23:32.115Z,1.38
2023-06-04T02:26:00.113Z,1.17
2023-06-04T02:28:28.324Z,1.20
2023-06-04T02:30:56.623Z,1.40
2023-06-04T02:33:25.949Z,1.08
2023-06-04T02:35:53.908Z,1.20
2023-06-04T02:38:21.722Z,1.10
2023-06-04T02:40:49.437Z,1.23
2023-06-04T02:43:17.532Z,1.33
2023-06-04T02:45:45.306Z,1.13
2023-06-04T02:48:13.093Z,1.40
2023-06-04T02:50:43.479Z,1.40
2023-06-04T02:53:11.263Z,1.20
2023-06-04T02:55:39.086Z,1.30
2023-06-04T02:58:07.025Z,1.20
2023-06-04T03:00:34.901Z,1.30
2023-06-04T03:03:03.493Z,1.13
2023-06-04T03:05:33.029Z,1.10
2023-06-04T03:08:03.942Z,1.20
2023-06-04T03:10:32.289Z,1.13
2023-06-04T03:13:00.099Z,1.17
2023-06-04T03:15:27.984Z,1.20
2023-06-04T03:17:56.097Z,1.23
2023-06-04T03:20:25.342Z,1.30
2023-06-04T03:22:53.595Z,1.10
2023-06-04T03:25:22.822Z,1.25
2023-06-04T03:27:50.889Z,1.47
2023-06-04T03:30:18.704Z,1.38
2023-06-04T03:32:46.666Z,1.40
2023-06-04T03:35:14.464Z,1.58
2023-06-04T03:37:42.251Z,1.70
2023-06-04T03:40:10.970Z,1.60
2023-06-04T03:45:08.902Z,1.40
2023-06-04T03:47:36.729Z,1.50
2023-06-04T03:50:04.724Z,1.50
2023-06-04T03:52:32.458Z,1.50
2023-06-04T03:55:00.278Z,1.70
2023-06-04T03:57:28.069Z,1.73
2023-06-04T03:59:57.934Z,1.73
2023-06-04T04:02:25.978Z,1.67
2023-06-04T04:04:55.238Z,1.88
2023-06-04T04:07:23.902Z,1.53
2023-06-04T04:12:19.592Z,1.77
2023-06-04T04:14:48.221Z,2.10
2023-06-04T04:17:17.383Z,1.67
2023-06-04T04:19:45.567Z,1.90
2023-06-04T04:22:14.161Z,1.80
2023-06-04T04:24:41.950Z,1.85
2023-06-04T04:27:12.202Z,2.10
2023-06-04T04:29:43.956Z,1.97
2023-06-04T04:32:12.459Z,1.63
2023-06-04T04:34:53.182Z,1.70
2023-06-04T04:37:22.229Z,2.00
2023-06-04T04:39:52.994Z,1.70
2023-06-04T04:42:20.977Z,2.00
2023-06-04T04:44:50.265Z,1.85
2023-06-04T04:47:18.859Z,2.03
2023-06-04T04:52:18.685Z,2.10
2023-06-04T04:54:46.545Z,2.00
2023-06-04T04:57:14.554Z,1.88
2023-06-04T04:59:42.607Z,2.15
2023-06-04T05:02:10.699Z,2.10
2023-06-04T05:04:38.641Z,2.10
2023-06-04T05:07:07.935Z,2.20
2023-06-04T05:09:35.772Z,1.83
2023-06-04T05:12:04.033Z,2.13
2023-06-04T05:14:32.652Z,2.13
2023-06-04T05:19:28.087Z,2.30
2023-06-04T05:21:56.639Z,2.22
2023-06-04T05:24:25.953Z,2.42
2023-06-04T05:26:53.710Z,2.60
2023-06-04T05:29:21.862Z,2.10
2023-06-04T05:31:49.725Z,2.20
2023-06-04T05:34:18.033Z,1.83
2023-06-04T05:36:45.953Z,2.40
2023-06-04T05:39:13.765Z,2.45
2023-06-04T05:41:43.395Z,2.17
2023-06-04T05:44:11.133Z,2.37
2023-06-04T05:46:39.212Z,2.20
2023-06-04T05:49:06.907Z,1.98
2023-06-04T05:51:34.736Z,2.13
2023-06-04T05:54:02.771Z,2.00
2023-06-04T05:56:30.880Z,2.13
2023-06-04T05:59:00.472Z,2.13
2023-06-04T06:01:29.208Z,2.10
2023-06-04T06:06:25.055Z,2.15
2023-06-04T06:08:53.863Z,2.25
2023-06-04T06:11:22.810Z,2.20
2023-06-04T06:13:50.784Z,2.00
2023-06-04T06:16:20.095Z,2.45
2023-06-04T06:18:47.915Z,2.10
2023-06-04T06:21:15.957Z,2.17
2023-06-04T06:23:43.886Z,2.05
2023-06-04T06:26:12.896Z,1.95
2023-06-04T06:28:41.327Z,1.73
2023-06-04T06:31:09.492Z,2.20
2023-06-04T06:33:42.140Z,1.90
2023-06-04T06:36:10.131Z,1.87
2023-06-04T06:38:38.025Z,2.25
2023-06-04T06:41:06.331Z,1.98
2023-06-04T06:43:34.459Z,1.80
2023-06-04T06:46:02.515Z,1.70
2023-06-04T06:48:30.402Z,2.25
2023-06-04T06:50:59.859Z,1.58
2023-06-04T06:53:27.642Z,1.67
2023-06-04T06:55:55.491Z,1.60
2023-06-04T06:58:24.258Z,1.50
2023-06-04T07:00:52.213Z,1.47
2023-06-04T07:03:20.302Z,1.63
2023-06-04T07:05:48.215Z,1.60
2023-06-04T07:08:17.469Z,1.42
2023-06-04T07:10:45.468Z,1.60
2023-06-04T07:13:13.255Z,1.30
2023-06-04T07:15:41.051Z,1.50
2023-06-04T07:18:09.152Z,1.60
2023-06-04T07:20:36.910Z,1.38
2023-06-04T07:23:04.833Z,1.42
2023-06-04T07:25:34.007Z,1.30
2023-06-04T07:28:04.961Z,1.60
2023-06-04T07:30:33.770Z,1.43
2023-06-04T07:33:01.749Z,1.60
2023-06-04T07:35:29.578Z,1.67
2023-06-04T07:37:58.025Z,1.58
2023-06-04T07:40:25.984Z,1.40
2023-06-04T07:42:55.230Z,1.40
2023-06-04T07:45:23.138Z,1.60
2023-06-04T07:47:51.293Z,1.60
2023-06-04T07:50:19.210Z,1.60
2023-06-04T07:52:47.255Z,1.90
2023-06-04T07:55:15.335Z,1.60
2023-06-04T07:57:43.297Z,1.30
2023-06-04T08:00:14.130Z,1.67
2023-06-04T08:02:42.059Z,1.67
2023-06-04T08:05:10.279Z,1.90
2023-06-04T08:07:38.460Z,1.50
2023-06-04T08:10:07.683Z,1.50
2023-06-04T08:12:35.507Z,1.52
2023-06-04T08:15:03.402Z,1.42
2023-06-04T08:17:32.623Z,1.75
2023-06-04T08:20:00.876Z,1.60
2023-06-04T08:22:30.285Z,1.20
2023-06-04T08:24:58.381Z,1.80
2023-06-04T08:27:26.335Z,1.40
2023-06-04T08:29:54.184Z,1.40
2023-06-04T08:32:21.931Z,1.55
2023-06-04T08:34:51.141Z,1.45
2023-06-04T08:37:19.437Z,1.30
2023-06-04T08:39:47.195Z,1.60
2023-06-04T08:42:24.242Z,1.52
2023-06-04T08:44:53.837Z,1.30
2023-06-04T08:47:22.205Z,1.52
2023-06-04T08:52:22.883Z,1.33
2023-06-04T08:54:52.287Z,1.65
2023-06-04T08:57:21.373Z,1.40
2023-06-04T08:59:49.823Z,1.50
2023-06-04T09:02:17.958Z,1.17
2023-06-04T09:04:46.617Z,1.35
2023-06-04T09:07:16.751Z,1.60
2023-06-04T09:09:54.649Z,1.20
2023-06-04T09:12:31.376Z,1.50
2023-06-04T09:14:59.834Z,1.20
2023-06-04T09:17:27.746Z,1.42
2023-06-04T09:19:55.669Z,1.30
2023-06-04T09:22:34.580Z,1.40
2023-06-04T09:25:02.506Z,1.70
2023-06-04T09:27:40.141Z,1.45
2023-06-04T09:30:10.421Z,1.15
2023-06-04T09:32:38.598Z,1.40
2023-06-04T09:35:13.973Z,1.10
2023-06-04T09:37:44.588Z,1.30
2023-06-04T09:40:13.005Z,1.23
2023-06-04T09:45:12.785Z,1.40
2023-06-04T09:47:42.310Z,1.40
2023-06-04T09:50:10.806Z,1.10
2023-06-04T09:52:38.850Z,1.20
2023-06-04T09:55:19.914Z,1.60
2023-06-04T09:57:50.504Z,1.10
2023-06-04T10:00:19.520Z,1.35
2023-06-04T10:02:48.292Z,1.20
2023-06-04T10:05:17.033Z,1.30
2023-06-04T10:07:47.254Z,1.58
2023-06-04T10:10:21.557Z,1.10
2023-06-04T10:12:53.436Z,1.00
2023-06-04T10:15:21.751Z,1.23
2023-06-04T10:20:20.941Z,1.10
2023-06-04T10:22:50.363Z,1.23
2023-06-04T10:25:21.697Z,1.05
2023-06-04T10:27:53.039Z,1.15
2023-06-04T10:30:21.205Z,1.15
2023-06-04T10:32:49.261Z,1.48
2023-06-04T10:35:17.367Z,1.17
2023-06-04T10:37:45.361Z,1.00
2023-06-04T10:40:13.873Z,1.20
2023-06-04T10:42:44.369Z,1.30
2023-06-04T10:45:13.244Z,1.08
2023-06-04T10:47:42.558Z,1.30
2023-06-04T10:50:12.210Z,1.50
2023-06-04T10:52:41.058Z,1.20
2023-06-04T10:55:10.340Z,1.10
2023-06-04T10:57:38.586Z,1.08
2023-06-04T11:00:11.350Z,1.10
2023-06-04T11:02:51.056Z,1.80
2023-06-04T11:05:19.353Z,1.30
2023-06-04T11:10:18.021Z,1.60
2023-06-04T11:12:46.949Z,1.30
2023-06-04T11:15:17.048Z,1.80
2023-06-04T11:17:52.708Z,1.70
2023-06-04T11:20:21.608Z,1.63
2023-06-04T11:22:53.844Z,1.50
2023-06-04T11:25:23.464Z,1.60
2023-06-04T11:27:52.457Z,1.77
2023-06-04T11:30:22.440Z,2.03
2023-06-04T11:32:51.363Z,2.08
2023-06-04T11:35:19.259Z,1.83
2023-06-04T11:37:56.484Z,1.90
2023-06-04T11:40:25.044Z,1.50
2023-06-04T11:42:53.002Z,1.70
2023-06-04T11:47:54.015Z,1.60
2023-06-04T11:50:22.836Z,1.73
2023-06-04T11:52:51.096Z,2.20
2023-06-04T11:55:22.134Z,3.05
2023-06-04T11:57:50.684Z,2.50
2023-06-04T12:00:20.425Z,1.80
2023-06-04T12:02:55.319Z,2.17
2023-06-04T12:05:25.799Z,2.25
2023-06-04T12:07:53.860Z,2.05
2023-06-04T12:10:22.334Z,1.50
2023-06-04T12:12:57.397Z,1.60
2023-06-04T12:15:25.472Z,1.45
2023-06-04T12:17:55.775Z,1.60
2023-06-04T12:20:35.620Z,1.60
2023-06-04T12:23:03.862Z,1.52
2023-06-04T12:25:32.374Z,1.73
2023-06-04T12:28:00.303Z,1.38
2023-06-04T12:33:06.210Z,1.43
2023-06-04T12:35:34.962Z,1.40
2023-06-04T12:38:05.444Z,1.60
2023-06-04T12:40:33.463Z,1.52
2023-06-04T12:43:01.340Z,1.50
2023-06-04T12:47:57.365Z,1.40
2023-06-04T12:50:26.721Z,1.50
2023-06-04T12:52:54.612Z,1.40
2023-06-04T12:55:22.661Z,1.88
2023-06-04T12:57:50.482Z,1.52
2023-06-04T13:02:46.335Z,1.52
2023-06-04T13:05:14.147Z,1.70
2023-06-04T13:10:11.551Z,1.50
2023-06-04T13:12:39.440Z,1.30
2023-06-04T13:15:08.185Z,1.42
2023-06-04T13:17:36.016Z,1.38
2023-06-04T13:20:04.594Z,1.30
2023-06-04T13:22:32.372Z,1.50
2023-06-04T13:25:01.534Z,1.48
2023-06-04T13:27:29.360Z,1.23
2023-06-04T13:29:57.524Z,1.50
2023-06-04T13:32:25.465Z,1.35
2023-06-04T13:34:53.328Z,1.50
2023-06-04T13:39:48.782Z,1.30
2023-06-04T13:42:18.059Z,1.48
2023-06-04T13:44:45.957Z,1.20
2023-06-04T13:47:13.739Z,1.27
2023-06-04T13:49:41.721Z,1.20
2023-06-04T13:52:09.528Z,1.30
2023-06-04T13:54:37.281Z,1.20
2023-06-04T13:57:05.772Z,1.30
2023-06-04T13:59:35.273Z,1.30
2023-06-04T14:02:03.242Z,1.40
2023-06-04T14:04:31.160Z,1.30
2023-06-04T14:06:59.602Z,1.40
2023-06-04T14:09:27.523Z,1.48
2023-06-04T14:11:55.706Z,1.48
2023-06-04T14:14:23.916Z,1.40
2023-06-04T14:16:57.661Z,1.30
2023-06-04T14:19:26.478Z,1.75
2023-06-04T14:21:54.277Z,1.30
2023-06-04T14:24:22.200Z,1.30
2023-06-04T14:26:50.099Z,1.40
2023-06-04T14:29:17.936Z,1.23
2023-06-04T14:31:46.742Z,1.27
2023-06-04T14:34:16.048Z,1.40
2023-06-04T14:36:43.932Z,1.70
2023-06-04T14:39:11.850Z,1.25
2023-06-04T14:41:39.687Z,1.52
2023-06-04T14:46:35.180Z,1.67
2023-06-04T14:49:03.033Z,1.60
2023-06-04T14:54:00.534Z,1.55
2023-06-04T14:58:58.026Z,1.50
2023-06-04T15:01:25.944Z,1.60
2023-06-04T15:03:53.773Z,1.67
2023-06-04T15:08:50.799Z,1.95
2023-06-04T15:11:18.641Z,1.90
2023-06-04T15:16:14.122Z,1.58
2023-06-04T15:23:38.877Z,1.85
2023-06-04T15:26:08.338Z,1.80
2023-06-04T15:28:36.126Z,2.20
2023-06-04T15:31:03.954Z,1.85
2023-06-04T15:33:31.852Z,1.52
2023-06-04T15:36:00.279Z,2.35
2023-06-04T15:38:30.193Z,1.60
2023-06-04T15:40:59.639Z,2.15
2023-06-04T15:43:28.892Z,2.42
2023-06-04T15:45:57.112Z,1.98
2023-06-04T15:48:28.461Z,2.17
2023-06-04T15:50:56.755Z,2.08
2023-06-04T15:53:24.993Z,1.70
2023-06-04T15:55:52.826Z,1.85
2023-06-04T15:58:20.663Z,1.75
2023-06-04T16:00:49.773Z,1.80
2023-06-04T16:03:17.723Z,1.90
2023-06-04T16:08:13.360Z,1.63
2023-06-04T16:10:42.317Z,1.85
2023-06-04T16:13:10.139Z,2.20
2023-06-04T16:15:38.609Z,4.95
2023-06-04T16:18:08.203Z,2.55
2023-06-04T16:20:36.203Z,2.20
2023-06-04T16:23:04.026Z,2.38
2023-06-04T16:25:31.922Z,1.88
2023-06-04T16:27:59.753Z,3.05
2023-06-04T16:30:28.329Z,2.17
2023-06-04T16:32:57.889Z,2.33
2023-06-04T16:35:28.366Z,3.00
2023-06-04T16:37:56.616Z,1.95
2023-06-04T16:42:53.114Z,2.25
2023-06-04T16:45:20.991Z,2.20
2023-06-04T16:47:49.913Z,3.83
2023-06-04T16:50:19.307Z,3.65
2023-06-04T16:52:48.472Z,7.80
2023-06-04T16:55:16.995Z,4.88
2023-06-04T16:57:44.960Z,2.60
2023-06-04T17:00:25.784Z,2.92
2023-06-04T17:02:57.446Z,2.60
2023-06-04T17:05:26.041Z,2.38
2023-06-04T17:07:55.831Z,2.13
2023-06-04T17:10:26.558Z,2.45
2023-06-04T17:12:54.375Z,2.80
2023-06-04T17:15:22.174Z,2.08
2023-06-04T17:17:51.440Z,2.50
2023-06-04T17:20:19.366Z,3.03
2023-06-04T17:22:47.516Z,2.72
2023-06-04T17:25:16.977Z,2.38
2023-06-04T17:27:44.740Z,2.45
2023-06-04T17:30:13.321Z,2.78
2023-06-04T17:32:42.331Z,2.35
2023-06-04T17:35:11.505Z,2.92
2023-06-04T17:37:39.613Z,2.33
2023-06-04T17:40:09.442Z,2.47
2023-06-04T17:42:38.733Z,1.83
2023-06-04T17:45:12.048Z,1.93
2023-06-04T17:47:40.062Z,2.10
2023-06-04T17:50:09.552Z,2.08
2023-06-04T17:52:37.374Z,1.90
2023-06-04T17:55:05.771Z,2.20
2023-06-04T17:57:33.678Z,2.00
2023-06-04T18:00:04.577Z,2.63
2023-06-04T18:02:32.441Z,2.10
2023-06-04T18:05:00.286Z,1.90
2023-06-04T18:07:28.183Z,2.17
2023-06-04T18:10:01.407Z,2.13
2023-06-04T18:12:33.274Z,2.00
2023-06-04T18:15:05.703Z,2.30
2023-06-04T18:17:34.840Z,3.50
2023-06-04T18:20:03.307Z,2.07
2023-06-04T18:22:31.768Z,1.85
2023-06-04T18:27:27.286Z,2.78
2023-06-04T18:29:55.066Z,2.30
2023-06-04T18:32:24.318Z,2.60
2023-06-04T18:34:52.243Z,2.27
2023-06-04T18:37:20.511Z,2.20
2023-06-04T18:39:48.543Z,1.90
2023-06-04T18:42:30.946Z,1.90
2023-06-04T18:45:00.917Z,2.30
2023-06-04T18:47:32.068Z,2.30
2023-06-04T18:50:03.304Z,2.20
2023-06-04T18:52:36.569Z,1.63
2023-06-04T18:55:06.060Z,2.20
2023-06-04T18:57:34.994Z,2.13
2023-06-04T19:00:08.342Z,2.20
2023-06-04T19:02:39.856Z,2.07
2023-06-04T19:05:11.929Z,2.60
2023-06-04T19:07:40.995Z,1.97
2023-06-04T19:10:09.534Z,2.07
2023-06-04T19:12:37.464Z,2.20
2023-06-04T19:15:07.216Z,1.98
2023-06-04T19:17:35.370Z,2.00
2023-06-04T19:20:05.734Z,2.30
2023-06-04T19:22:34.972Z,2.03
2023-06-04T19:25:03.166Z,2.23
2023-06-04T19:27:31.377Z,2.13
2023-06-04T19:29:59.360Z,1.95
2023-06-04T19:32:29.461Z,1.85
2023-06-04T19:34:58.173Z,2.23
2023-06-04T19:37:27.452Z,1.87
2023-06-04T19:40:00.545Z,2.40
2023-06-04T19:42:29.299Z,2.27
2023-06-04T19:44:59.273Z,2.10
2023-06-04T19:47:27.728Z,2.07
2023-06-04T19:49:59.057Z,2.13
2023-06-04T19:52:28.555Z,2.00
2023-06-04T19:54:57.304Z,2.37
2023-06-04T19:57:27.937Z,2.30
2023-06-04T19:59:57.383Z,4.03
2023-06-04T20:02:25.484Z,2.60
2023-06-04T20:04:53.503Z,2.35
2023-06-04T20:07:22.375Z,2.22
2023-06-04T20:09:51.704Z,2.40
2023-06-04T20:12:20.783Z,2.10
2023-06-04T20:14:52.098Z,2.27
2023-06-04T20:17:20.391Z,2.10
2023-06-04T20:19:48.540Z,1.73
2023-06-04T20:22:16.545Z,1.85
2023-06-04T20:24:45.257Z,2.20
2023-06-04T20:27:18.134Z,2.23
2023-06-04T20:29:46.382Z,2.00
2023-06-04T20:32:19.160Z,2.03
2023-06-04T20:34:47.019Z,2.40
2023-06-04T20:37:15.270Z,1.85
2023-06-04T20:39:48.717Z,2.25
2023-06-04T20:42:24.130Z,2.37
2023-06-04T20:44:53.231Z,2.13
2023-06-04T20:47:21.217Z,2.10
2023-06-04T20:49:52.566Z,2.08
2023-06-04T20:52:23.841Z,2.20
2023-06-04T20:54:54.176Z,2.47
2023-06-04T20:57:24.078Z,2.63
2023-06-04T20:59:55.055Z,2.23
2023-06-04T21:02:23.208Z,2.20
2023-06-04T21:04:51.810Z,2.50
2023-06-04T21:09:48.321Z,2.30
2023-06-04T21:12:17.058Z,2.33
2023-06-04T21:14:46.667Z,2.60
2023-06-04T21:17:14.876Z,2.37
2023-06-04T21:19:42.658Z,2.50
2023-06-04T21:22:10.393Z,2.63
2023-06-04T21:24:38.246Z,2.65
2023-06-04T21:27:09.178Z,2.55
2023-06-04T21:29:37.170Z,2.40
2023-06-04T21:32:07.301Z,2.45
2023-06-04T21:34:35.340Z,2.93
2023-06-04T21:37:03.270Z,2.30
2023-06-04T21:39:33.237Z,2.22
2023-06-04T21:42:01.244Z,2.43
2023-06-04T21:44:29.295Z,2.70
2023-06-04T21:46:58.026Z,2.60
2023-06-04T21:49:27.366Z,2.33
2023-06-04T21:51:55.231Z,2.50
2023-06-04T21:54:23.843Z,2.60
2023-06-04T21:59:20.685Z,2.75
2023-06-04T22:01:51.531Z,3.10
2023-06-04T22:04:19.540Z,2.70
2023-06-04T22:06:56.718Z,2.72
2023-06-04T22:09:25.706Z,2.70
2023-06-04T22:11:54.080Z,2.40
2023-06-04T22:14:22.365Z,2.97
2023-06-04T22:16:50.344Z,3.35
2023-06-04T22:19:24.120Z,2.78
2023-06-04T22:21:53.918Z,2.53
2023-06-04T22:24:25.233Z,2.97
2023-06-04T22:26:53.073Z,3.00
2023-06-04T22:29:23.634Z,2.55
2023-06-04T22:31:54.667Z,2.53
2023-06-04T22:34:25.253Z,3.00
2023-06-04T22:36:59.367Z,2.50
2023-06-04T22:39:27.260Z,2.77
2023-06-04T22:41:55.124Z,3.05
2023-06-04T22:44:23.020Z,2.65
2023-06-04T22:46:50.929Z,2.55
2023-06-04T22:49:18.956Z,3.05
2023-06-04T22:51:47.052Z,3.13
2023-06-04T22:54:18.736Z,3.13
2023-06-04T22:56:46.880Z,2.90
2023-06-04T22:59:16.977Z,3.20
2023-06-04T23:01:45.053Z,3.20
2023-06-04T23:04:13.743Z,3.40
2023-06-04T23:09:09.979Z,3.35
2023-06-04T23:11:39.158Z,3.38
2023-06-04T23:14:06.986Z,3.50
2023-06-04T23:16:34.846Z,3.00
2023-06-04T23:19:02.670Z,4.05
2023-06-04T23:21:30.780Z,3.50
2023-06-04T23:23:59.005Z,3.03
2023-06-04T23:26:26.816Z,3.00
2023-06-04T23:28:56.506Z,3.67
2023-06-04T23:31:24.357Z,3.93
2023-06-04T23:33:52.192Z,3.85
2023-06-04T23:36:20.034Z,3.28
2023-06-04T23:38:48.589Z,3.47
2023-06-04T23:41:16.454Z,3.65
2023-06-04T23:43:44.614Z,3.42
2023-06-04T23:46:13.827Z,3.25
2023-06-04T23:48:42.060Z,3.90
2023-06-04T23:51:10.867Z,3.45
2023-06-04T23:53:38.779Z,3.60
2023-06-04T23:56:06.523Z,3.80
2023-06-04T23:58:34.290Z,3.77
